Time;durP1;ratioP1;P1;durP2;ratioP2;P2;SDS_P1;SDS_P2;PMS_P1;PMS_P2;Temp;Humidity;BMP_temperature;BMP_pressure;BME280_temperature;BME280_humidity;BME280_pressure;Samples;Min_cycle;Max_cycle;Signal;HPM_P1;HPM_P2
2021/09/10 00:01:28;;;;;;;8.67;7.77;;;18.10;80.40;;;;;;5034374;28;20951;-67
2021/09/10 00:04:01;;;;;;;9.60;8.70;;;18.10;80.60;;;;;;5034672;28;20473;-67
2021/09/10 00:06:28;;;;;;;10.87;8.93;;;18.00;80.50;;;;;;5033462;28;20808;-67
2021/09/10 00:08:56;;;;;;;12.40;10.00;;;17.90;80.80;;;;;;5034371;28;20544;-67
2021/09/10 00:11:24;;;;;;;10.27;9.00;;;17.90;81.10;;;;;;5034087;28;20452;-66
2021/09/10 00:13:52;;;;;;;10.17;8.67;;;17.80;81.30;;;;;;5034347;28;20781;-67
2021/09/10 00:16:19;;;;;;;12.20;7.80;;;17.80;82.10;;;;;;5033768;28;20489;-66
2021/09/10 00:18:46;;;;;;;10.00;8.40;;;17.80;82.30;;;;;;5033906;28;20500;-66
2021/09/10 00:21:13;;;;;;;8.73;7.83;;;17.70;82.50;;;;;;5034165;28;20445;-67
2021/09/10 00:23:40;;;;;;;9.30;8.40;;;17.70;82.90;;;;;;5033775;28;20434;-66
2021/09/10 00:26:12;;;;;;;10.40;8.47;;;17.70;83.20;;;;;;5034086;28;20488;-67
2021/09/10 00:28:40;;;;;;;8.93;8.03;;;17.70;82.90;;;;;;5034041;28;20529;-67
2021/09/10 00:31:08;;;;;;;10.70;9.60;;;17.60;83.00;;;;;;5033912;28;20834;-67
2021/09/10 00:33:35;;;;;;;11.13;8.50;;;17.60;83.20;;;;;;5033847;28;20909;-66
2021/09/10 00:36:02;;;;;;;10.20;7.27;;;17.60;83.70;;;;;;5033922;28;20465;-66
2021/09/10 00:38:30;;;;;;;7.57;6.87;;;17.50;84.10;;;;;;5033612;28;20891;-66
2021/09/10 00:41:02;;;;;;;9.20;7.70;;;17.40;84.30;;;;;;5033838;28;20504;-66
2021/09/10 00:43:30;;;;;;;8.23;6.73;;;17.40;84.20;;;;;;5033818;28;20481;-67
2021/09/10 00:46:01;;;;;;;7.97;6.67;;;17.50;84.30;;;;;;5033657;28;20442;-67
2021/09/10 00:48:33;;;;;;;9.00;8.10;;;17.50;84.30;;;;;;5033170;28;21016;-66
2021/09/10 00:51:05;;;;;;;10.40;6.77;;;17.50;84.40;;;;;;5033193;28;20529;-66
2021/09/10 00:53:32;;;;;;;8.20;7.40;;;17.50;84.40;;;;;;5033537;28;20529;-66
2021/09/10 00:56:05;;;;;;;8.60;7.20;;;17.50;84.20;;;;;;5032986;28;20509;-66
2021/09/10 00:58:36;;;;;;;7.80;7.00;;;17.50;84.20;;;;;;5033480;28;20481;-66
2021/09/10 01:01:05;;;;;;;7.93;7.13;;;17.60;84.10;;;;;;5033406;28;20532;-66
2021/09/10 01:03:32;;;;;;;8.73;7.90;;;17.70;84.30;;;;;;5033141;28;20521;-66
2021/09/10 01:06:01;;;;;;;8.10;7.30;;;17.70;84.10;;;;;;5033095;28;20496;-66
2021/09/10 01:08:29;;;;;;;10.43;8.13;;;17.70;83.90;;;;;;5033106;28;20520;-66
2021/09/10 01:10:59;;;;;;;7.97;7.17;;;17.80;83.70;;;;;;5033268;28;20477;-68
2021/09/10 01:13:27;;;;;;;9.47;6.67;;;17.80;83.30;;;;;;5033541;28;20473;-67
2021/09/10 01:16:00;;;;;;;8.80;7.40;;;17.80;83.10;;;;;;5032769;28;20465;-67
2021/09/10 01:18:32;;;;;;;7.83;7.03;;;17.90;83.60;;;;;;5031736;28;20481;-66
2021/09/10 01:20:59;;;;;;;9.97;7.07;;;17.90;83.40;;;;;;5032945;28;20450;-66
2021/09/10 01:23:30;;;;;;;8.33;7.53;;;17.90;83.50;;;;;;5033186;28;20465;-66
2021/09/10 01:25:59;;;;;;;8.77;7.80;;;18.00;83.90;;;;;;5032668;28;20441;-67
2021/09/10 01:28:27;;;;;;;9.10;6.57;;;18.00;83.90;;;;;;5032733;28;20517;-66
2021/09/10 01:30:54;;;;;;;9.63;7.67;;;18.00;83.90;;;;;;5032412;28;20437;-66
2021/09/10 01:33:21;;;;;;;9.00;8.10;;;18.00;83.70;;;;;;5032707;28;20460;-66
2021/09/10 01:35:49;;;;;;;11.77;7.87;;;17.90;83.20;;;;;;5032462;28;20525;-67
2021/09/10 01:38:16;;;;;;;8.73;7.67;;;17.90;83.60;;;;;;5032382;28;20564;-67
2021/09/10 01:40:43;;;;;;;8.30;7.47;;;17.90;83.80;;;;;;5032377;28;20441;-67
2021/09/10 01:43:12;;;;;;;9.13;7.33;;;17.90;83.90;;;;;;5032300;28;20987;-69
2021/09/10 01:45:39;;;;;;;9.23;7.57;;;17.90;84.10;;;;;;5032452;28;20434;-66
2021/09/10 01:48:07;;;;;;;10.17;8.10;;;17.90;84.20;;;;;;5032443;28;20445;-67
2021/09/10 01:50:38;;;;;;;11.13;7.03;;;17.90;84.30;;;;;;5032552;28;20434;-66
2021/09/10 01:53:05;;;;;;;10.40;7.20;;;17.90;84.10;;;;;;5032623;28;20538;-66
2021/09/10 01:55:32;;;;;;;8.70;6.90;;;17.90;84.10;;;;;;5032621;28;20845;-66
2021/09/10 01:58:00;;;;;;;8.13;6.60;;;18.00;84.00;;;;;;5031945;28;20505;-67
2021/09/10 02:00:28;;;;;;;10.60;7.57;;;17.90;83.80;;;;;;5031791;28;20924;-67
2021/09/10 02:02:55;;;;;;;8.17;7.37;;;17.90;83.70;;;;;;5032225;28;20438;-67
2021/09/10 02:05:22;;;;;;;10.13;6.90;;;17.90;83.60;;;;;;5032109;28;20522;-66
2021/09/10 02:07:49;;;;;;;8.20;7.10;;;17.90;83.90;;;;;;5032336;28;20524;-66
2021/09/10 02:10:17;;;;;;;7.03;6.33;;;17.90;84.00;;;;;;5032257;28;20520;-67
2021/09/10 02:12:45;;;;;;;8.87;7.60;;;17.90;84.10;;;;;;5032188;28;20545;-66
2021/09/10 02:15:13;;;;;;;8.43;7.63;;;17.90;83.90;;;;;;5032219;28;20634;-67
2021/09/10 02:17:42;;;;;;;9.83;7.93;;;17.80;84.20;;;;;;5031933;28;20493;-67
2021/09/10 02:20:11;;;;;;;9.73;7.70;;;17.80;84.50;;;;;;5032011;28;20433;-67
2021/09/10 02:22:38;;;;;;;8.90;7.27;;;17.80;84.80;;;;;;5031819;28;20480;-67
2021/09/10 02:25:06;;;;;;;8.60;7.80;;;17.80;84.70;;;;;;5032366;28;20529;-67
2021/09/10 02:27:33;;;;;;;8.37;7.37;;;17.80;84.70;;;;;;5032214;28;20479;-66
2021/09/10 02:30:04;;;;;;;7.67;6.97;;;17.80;85.00;;;;;;5035326;28;20532;-66
2021/09/10 02:32:33;;;;;;;10.33;6.67;;;17.80;85.40;;;;;;5036200;28;20477;-67
2021/09/10 02:35:01;;;;;;;10.60;8.43;;;17.80;85.20;;;;;;5035995;28;20520;-66
2021/09/10 02:37:33;;;;;;;8.30;7.40;;;17.80;85.10;;;;;;5035727;28;20563;-66
2021/09/10 02:39:59;;;;;;;9.20;8.13;;;17.80;85.20;;;;;;5035946;28;20484;-66
2021/09/10 02:42:26;;;;;;;8.00;7.20;;;17.80;85.20;;;;;;5035918;28;20540;-66
2021/09/10 02:44:53;;;;;;;8.03;7.30;;;17.80;85.10;;;;;;5035936;28;20446;-67
2021/09/10 02:47:31;;;;;;;9.60;7.70;;;17.80;85.10;;;;;;5035560;28;21012;-67
2021/09/10 02:50:10;;;;;;;10.37;7.83;;;17.70;85.50;;;;;;5035973;28;20756;-68
2021/09/10 02:52:37;;;;;;;8.80;7.80;;;17.80;85.80;;;;;;5035720;28;20984;-67
2021/09/10 02:55:11;;;;;;;8.33;7.10;;;17.80;85.80;;;;;;5035385;28;20520;-67
2021/09/10 02:57:54;;;;;;;12.97;8.90;;;17.80;85.90;;;;;;5035217;28;20481;-66
2021/09/10 03:00:23;;;;;;;10.60;8.90;;;17.70;85.90;;;;;;5035181;28;20449;-66
2021/09/10 03:02:50;;;;;;;7.83;7.00;;;17.70;85.80;;;;;;5035074;28;20461;-66
2021/09/10 03:05:18;;;;;;;8.57;7.73;;;17.70;85.90;;;;;;5035317;28;20954;-66
2021/09/10 03:07:45;;;;;;;8.00;6.40;;;17.70;85.90;;;;;;5035299;28;20473;-66
2021/09/10 03:10:12;;;;;;;8.57;7.40;;;17.70;86.00;;;;;;5035201;28;20477;-67
2021/09/10 03:12:42;;;;;;;8.07;7.27;;;17.70;86.20;;;;;;5035184;28;20450;-66
2021/09/10 03:15:12;;;;;;;8.27;7.47;;;17.70;87.30;;;;;;5035484;28;20495;-70
2021/09/10 03:17:42;;;;;;;10.00;7.10;;;17.70;86.40;;;;;;5034687;28;20532;-66
2021/09/10 03:20:11;;;;;;;7.80;7.10;;;17.70;86.10;;;;;;5035325;28;20861;-66
2021/09/10 03:22:39;;;;;;;9.60;6.97;;;17.70;86.10;;;;;;5035252;28;20473;-66
2021/09/10 03:25:07;;;;;;;8.97;7.10;;;17.60;86.00;;;;;;5035148;28;20438;-68
2021/09/10 03:27:46;;;;;;;7.20;6.50;;;17.60;86.20;;;;;;5034874;28;20532;-66
2021/09/10 03:33:54;;;;;;;7.57;6.83;;;17.60;86.60;;;;;;4945703;29;20433;-68
2021/09/10 03:36:33;;;;;;;9.03;7.20;;;17.50;86.60;;;;;;4954224;29;20625;-66
2021/09/10 03:39:02;;;;;;;9.43;8.53;;;17.40;86.80;;;;;;4954113;29;20543;-66
2021/09/10 03:41:32;;;;;;;10.50;8.63;;;17.30;87.00;;;;;;5033609;28;20815;-67
2021/09/10 03:44:03;;;;;;;10.80;9.20;;;17.30;87.70;;;;;;5034603;28;20525;-66
2021/09/10 03:46:30;;;;;;;8.60;7.70;;;17.20;87.70;;;;;;5034573;28;20453;-66
2021/09/10 03:49:11;;;;;;;10.80;7.30;;;17.20;88.00;;;;;;5034226;28;21004;-67
2021/09/10 03:51:40;;;;;;;9.63;7.80;;;17.20;88.00;;;;;;5034576;28;20491;-67
2021/09/10 03:54:09;;;;;;;8.93;7.90;;;17.30;88.00;;;;;;5034210;28;20438;-67
2021/09/10 03:57:03;;;;;;;12.47;9.23;;;17.20;88.30;;;;;;5034317;28;20438;-66
2021/09/10 03:59:30;;;;;;;9.47;7.67;;;17.20;88.40;;;;;;5034351;28;20572;-67
2021/09/10 04:01:58;;;;;;;10.53;8.03;;;17.10;88.70;;;;;;5033158;28;20442;-66
2021/09/10 04:04:40;;;;;;;13.10;8.77;;;17.10;88.80;;;;;;5034602;28;20481;-66
2021/09/10 04:07:14;;;;;;;9.30;8.40;;;17.00;88.80;;;;;;5031685;28;20448;-66
2021/09/10 04:09:45;;;;;;;8.77;7.97;;;17.00;89.00;;;;;;5034268;28;20535;-67
2021/09/10 04:12:22;;;;;;;9.77;7.50;;;17.00;89.00;;;;;;5034638;28;20855;-67
2021/09/10 04:14:49;;;;;;;9.60;7.67;;;17.00;89.30;;;;;;5034497;28;20541;-66
2021/09/10 04:17:20;;;;;;;8.97;7.83;;;16.90;89.10;;;;;;5033539;28;20975;-66
2021/09/10 04:19:47;;;;;;;8.77;7.87;;;16.90;89.30;;;;;;5034123;28;20540;-67
2021/09/10 04:22:15;;;;;;;10.93;9.80;;;16.90;90.10;;;;;;5033864;28;20477;-67
2021/09/10 04:24:43;;;;;;;10.33;8.40;;;16.90;89.60;;;;;;5034211;28;20437;-66
2021/09/10 04:27:21;;;;;;;13.73;9.80;;;16.80;89.90;;;;;;5033904;28;20488;-67
2021/09/10 04:29:54;;;;;;;11.80;9.70;;;16.80;90.10;;;;;;5033729;28;20438;-66
2021/09/10 04:32:21;;;;;;;9.13;7.90;;;16.70;90.00;;;;;;5033740;28;20525;-66
2021/09/10 04:35:01;;;;;;;12.83;8.73;;;16.70;90.20;;;;;;5034146;28;20931;-66
2021/09/10 04:37:29;;;;;;;10.00;8.60;;;16.60;90.40;;;;;;5033610;28;20437;-66
2021/09/10 04:39:58;;;;;;;8.90;8.00;;;16.60;90.60;;;;;;5033793;28;20465;-66
2021/09/10 04:42:25;;;;;;;10.30;8.80;;;16.60;90.80;;;;;;5033892;28;20532;-66
2021/09/10 04:45:03;;;;;;;9.27;7.97;;;16.60;90.80;;;;;;5034082;28;20461;-66
2021/09/10 04:47:30;;;;;;;10.53;7.70;;;16.60;90.80;;;;;;5033649;28;20448;-66
2021/09/10 04:56:33;;;;;;;12.43;8.77;;;16.60;90.80;;;;;;5031688;28;20751;-66
2021/09/10 04:59:00;;;;;;;9.83;8.83;;;16.60;90.80;;;;;;5044178;28;20530;-67
2021/09/10 05:01:28;;;;;;;9.10;8.20;;;16.60;90.80;;;;;;5039939;28;20462;-66
2021/09/10 05:03:55;;;;;;;11.33;7.30;;;16.60;90.90;;;;;;5032946;28;20434;-66
2021/09/10 05:06:25;;;;;;;8.50;7.53;;;16.60;91.00;;;;;;5032806;28;20521;-66
2021/09/10 05:09:18;;;;;;;11.23;9.13;;;16.60;91.10;;;;;;5032851;28;20438;-66
2021/09/10 05:11:51;;;;;;;9.37;8.43;;;16.60;91.20;;;;;;5041893;28;20500;-66
2021/09/10 05:14:18;;;;;;;10.20;9.23;;;16.70;91.30;;;;;;5045751;28;20449;-67
2021/09/10 05:16:45;;;;;;;11.23;7.57;;;16.70;91.30;;;;;;5049464;28;20559;-67
2021/09/10 05:19:13;;;;;;;8.10;7.30;;;16.70;91.40;;;;;;5044751;28;20483;-69
2021/09/10 05:21:40;;;;;;;9.10;7.93;;;16.70;91.10;;;;;;5048000;28;20476;-69
2021/09/10 05:24:09;;;;;;;8.70;7.80;;;16.70;91.20;;;;;;5032394;28;20512;-66
2021/09/10 05:27:00;;;;;;;8.50;7.47;;;16.70;91.30;;;;;;5032675;28;20525;-68
2021/09/10 05:29:32;;;;;;;8.00;7.20;;;16.70;91.10;;;;;;5047065;28;20473;-68
2021/09/10 05:31:59;;;;;;;15.63;10.27;;;16.70;91.00;;;;;;5049890;28;20483;-68
2021/09/10 05:34:26;;;;;;;14.73;9.17;;;16.60;91.30;;;;;;5032359;28;20989;-68
2021/09/10 05:36:58;;;;;;;9.30;8.40;;;16.60;91.60;;;;;;5032130;28;20954;-68
2021/09/10 05:39:25;;;;;;;12.73;9.33;;;16.70;91.80;;;;;;5032247;28;21058;-68
2021/09/10 05:41:53;;;;;;;11.13;8.77;;;16.70;91.90;;;;;;5038011;28;20516;-68
2021/09/10 05:44:20;;;;;;;9.30;8.30;;;16.80;92.10;;;;;;5032565;28;20529;-68
2021/09/10 05:46:47;;;;;;;13.60;9.27;;;16.90;92.10;;;;;;5032572;28;20785;-69
2021/09/10 05:49:25;;;;;;;10.60;9.50;;;17.00;92.00;;;;;;5039477;28;20437;-68
2021/09/10 05:52:01;;;;;;;11.27;9.90;;;17.10;92.00;;;;;;5046894;28;20857;-68
2021/09/10 05:54:35;;;;;;;8.57;7.43;;;17.20;92.00;;;;;;5029455;28;20557;-69
2021/09/10 05:57:09;;;;;;;10.40;9.13;;;17.30;91.80;;;;;;5035209;28;21098;-67
2021/09/10 05:59:52;;;;;;;10.70;8.20;;;17.40;92.00;;;;;;5033755;28;20461;-67
2021/09/10 06:02:22;;;;;;;8.53;7.60;;;17.50;92.30;;;;;;5046680;28;20472;-67
2021/09/10 06:04:51;;;;;;;9.00;7.83;;;17.60;92.30;;;;;;5049412;28;20441;-67
2021/09/10 06:07:18;;;;;;;10.70;8.70;;;17.70;92.20;;;;;;5047765;28;20535;-68
2021/09/10 06:09:46;;;;;;;10.13;8.87;;;17.80;92.00;;;;;;5032188;28;20500;-68
2021/09/10 06:12:23;;;;;;;9.97;7.90;;;17.90;91.80;;;;;;5031937;28;20448;-68
2021/09/10 06:14:50;;;;;;;9.00;8.10;;;18.00;91.70;;;;;;5032193;28;20778;-67
2021/09/10 06:17:22;;;;;;;11.53;8.17;;;18.10;91.50;;;;;;5043380;28;20577;-69
2021/09/10 06:19:49;;;;;;;9.50;7.47;;;18.20;91.40;;;;;;5049641;28;20559;-68
2021/09/10 06:22:18;;;;;;;10.03;9.03;;;18.30;91.40;;;;;;5036315;28;20481;-68
2021/09/10 06:24:48;;;;;;;13.37;7.73;;;18.40;91.40;;;;;;5032136;28;20503;-68
2021/09/10 06:27:15;;;;;;;8.30;7.17;;;18.60;91.20;;;;;;5044127;28;20530;-68
2021/09/10 06:29:44;;;;;;;10.70;7.80;;;18.70;90.70;;;;;;5041286;28;20442;-69
2021/09/10 06:32:17;;;;;;;10.23;8.27;;;18.80;90.50;;;;;;5031423;28;20437;-68
2021/09/10 06:34:56;;;;;;;8.80;7.90;;;18.90;90.60;;;;;;5031037;28;20441;-68
2021/09/10 06:37:27;;;;;;;9.80;7.73;;;19.10;90.80;;;;;;5048010;28;21006;-68
2021/09/10 06:39:59;;;;;;;10.60;6.83;;;19.20;90.70;;;;;;5031207;28;20564;-68
2021/09/10 06:42:26;;;;;;;8.97;7.53;;;19.30;90.50;;;;;;5047644;28;20856;-68
2021/09/10 06:45:14;;;;;;;10.93;7.20;;;19.50;90.30;;;;;;5048360;28;20528;-68
2021/09/10 06:47:47;;;;;;;8.93;6.70;;;19.60;90.10;;;;;;5049097;28;20528;-70
2021/09/10 06:50:27;;;;;;;;;;;;;;;;;;;;;
2021/09/10 06:52:54;;;;;;;11.37;7.60;;;19.90;89.10;;;;;;5046908;28;20435;-68
2021/09/10 06:55:21;;;;;;;9.33;7.37;;;20.10;88.80;;;;;;5030792;28;20444;-68
2021/09/10 06:58:29;;;;;;;13.70;6.87;;;20.30;87.50;;;;;;5030937;28;20521;-69
2021/09/10 07:00:59;;;;;;;13.30;7.73;;;20.60;87.40;;;;;;5005567;28;20484;-68
2021/09/10 07:03:38;;;;;;;8.90;5.93;;;20.90;87.30;;;;;;5034134;28;20860;-68
2021/09/10 07:06:11;;;;;;;15.23;7.40;;;21.20;84.50;;;;;;5048510;28;20439;-69
2021/09/10 07:08:42;;;;;;;7.70;6.60;;;21.50;82.00;;;;;;5048517;28;20864;-71
2021/09/10 07:11:15;;;;;;;6.93;6.10;;;21.90;80.20;;;;;;5046294;28;20537;-68
2021/09/10 07:13:51;;;;;;;7.57;5.60;;;22.30;79.60;;;;;;5048830;28;20515;-68
2021/09/10 07:16:22;;;;;;;9.47;5.97;;;22.80;75.50;;;;;;5041399;28;20559;-68
2021/09/10 07:19:07;;;;;;;6.37;5.77;;;23.40;76.30;;;;;;5040004;28;20486;-71
2021/09/10 07:21:46;;;;;;;8.00;5.60;;;24.20;71.80;;;;;;5052681;28;20441;-68
2021/09/10 07:24:58;;;;;;;10.10;5.50;;;25.10;68.80;;;;;;5052283;28;20924;-68
2021/09/10 07:27:43;;;;;;;8.73;5.90;;;26.10;64.60;;;;;;5052001;28;20519;-69
2021/09/10 07:30:33;;;;;;;11.33;7.00;;;27.60;56.00;;;;;;5038039;28;20436;-70
2021/09/10 07:33:16;;;;;;;6.43;5.73;;;29.20;55.40;;;;;;5052065;28;20441;-69
2021/09/10 07:35:56;;;;;;;7.77;5.23;;;31.50;47.50;;;;;;5042605;28;20848;-68
2021/09/10 07:38:35;;;;;;;10.17;7.43;;;33.40;44.90;;;;;;5034636;28;20547;-68
2021/09/10 07:41:15;;;;;;;5.90;4.70;;;35.10;40.20;;;;;;5035496;28;20430;-68
2021/09/10 07:43:58;;;;;;;6.80;5.73;;;36.30;36.40;;;;;;5034366;28;20846;-68
2021/09/10 07:46:29;;;;;;;9.13;5.57;;;37.60;34.20;;;;;;5034605;28;20564;-69
2021/09/10 07:49:17;;;;;;;5.60;5.10;;;38.80;30.60;;;;;;5034343;28;20492;-68
2021/09/10 07:51:52;;;;;;;5.63;4.60;;;39.80;29.70;;;;;;5037124;28;20445;-71
2021/09/10 07:54:36;;;;;;;12.23;5.50;;;40.80;28.20;;;;;;5034085;28;20480;-69
2021/09/10 07:57:11;;;;;;;7.13;4.70;;;41.90;25.80;;;;;;5042895;28;20441;-69
2021/09/10 07:59:41;;;;;;;7.63;5.30;;;42.80;24.50;;;;;;5051133;28;21088;-70
2021/09/10 08:02:13;;;;;;;6.37;5.07;;;43.30;23.20;;;;;;5050329;28;20938;-69
2021/09/10 08:04:46;;;;;;;5.10;4.60;;;43.90;22.70;;;;;;5051301;28;20469;-69
2021/09/10 08:07:16;;;;;;;6.30;4.53;;;44.60;22.40;;;;;;5045597;28;20520;-70
2021/09/10 08:09:46;;;;;;;4.73;4.33;;;45.30;21.80;;;;;;5045977;28;20888;-69
2021/09/10 08:12:24;;;;;;;5.83;5.23;;;45.70;20.30;;;;;;5051390;28;20453;-69
2021/09/10 08:15:09;;;;;;;5.77;4.50;;;46.10;19.70;;;;;;5051175;28;20428;-69
2021/09/10 08:17:38;;;;;;;5.07;4.60;;;46.50;18.30;;;;;;5051823;28;20530;-68
2021/09/10 08:20:12;;;;;;;5.07;4.67;;;46.90;17.80;;;;;;5034043;28;20485;-69
2021/09/10 08:22:43;;;;;;;6.53;4.33;;;47.40;18.00;;;;;;5041468;28;20539;-70
2021/09/10 08:25:24;;;;;;;5.20;3.87;;;47.70;17.30;;;;;;5051424;28;20456;-70
2021/09/10 08:27:51;;;;;;;4.30;3.90;;;48.10;17.40;;;;;;5033859;28;20432;-70
2021/09/10 08:30:21;;;;;;;5.20;4.70;;;48.40;17.40;;;;;;5034042;28;20482;-71
2021/09/10 08:32:53;;;;;;;5.80;3.97;;;49.10;16.70;;;;;;5033668;28;20469;-69
2021/09/10 08:35:22;;;;;;;5.10;4.47;;;49.70;15.50;;;;;;5033805;28;20445;-69
2021/09/10 08:37:57;;;;;;;6.37;4.40;;;49.90;15.20;;;;;;5033919;28;20430;-70
2021/09/10 08:40:27;;;;;;;6.33;4.20;;;50.50;15.00;;;;;;5034014;28;20516;-69
2021/09/10 08:43:11;;;;;;;4.80;3.70;;;50.80;15.10;;;;;;5033673;28;20480;-69
2021/09/10 08:45:41;;;;;;;4.43;4.03;;;51.20;15.30;;;;;;5033524;28;20441;-70
2021/09/10 08:48:11;;;;;;;5.80;4.30;;;51.80;14.60;;;;;;5040779;28;20468;-70
2021/09/10 08:50:39;;;;;;;4.50;4.10;;;52.20;14.00;;;;;;5037091;28;20476;-70
2021/09/10 08:53:13;;;;;;;7.03;4.67;;;52.50;13.90;;;;;;5041365;28;20452;-66
2021/09/10 08:55:41;;;;;;;4.20;3.80;;;52.80;13.50;;;;;;5042659;28;20436;-67
2021/09/10 08:58:09;;;;;;;4.10;3.70;;;53.10;13.20;;;;;;5033173;28;20466;-67
2021/09/10 09:00:40;;;;;;;5.17;4.23;;;53.30;12.80;;;;;;5034536;28;20442;-66
2021/09/10 09:03:27;;;;;;;5.57;5.10;;;53.60;12.80;;;;;;5033355;28;20487;-67
2021/09/10 09:05:56;;;;;;;6.20;4.80;;;54.00;12.70;;;;;;5039345;28;20963;-66
2021/09/10 09:08:28;;;;;;;3.97;3.67;;;54.40;12.50;;;;;;5044643;28;20528;-68
2021/09/10 09:11:15;;;;;;;5.00;4.07;;;54.70;12.20;;;;;;5039573;28;20559;-67
2021/09/10 09:13:45;;;;;;;5.90;3.80;;;55.00;11.70;;;;;;5043312;28;20437;-68
2021/09/10 09:16:23;;;;;;;4.43;3.87;;;55.20;11.80;;;;;;5039710;28;20477;-68
2021/09/10 09:18:57;;;;;;;4.53;4.00;;;55.40;11.60;;;;;;5038663;28;20970;-68
2021/09/10 09:21:28;;;;;;;5.40;4.60;;;55.80;11.50;;;;;;5043238;28;20449;-67
2021/09/10 09:23:59;;;;;;;4.77;4.10;;;56.10;11.30;;;;;;5038823;28;20799;-72
2021/09/10 09:26:53;;;;;;;4.50;3.87;;;56.40;11.20;;;;;;5039556;28;20453;-68
2021/09/10 09:29:24;;;;;;;5.13;4.37;;;56.50;11.10;;;;;;5039227;28;20492;-67
2021/09/10 09:31:57;;;;;;;6.37;5.77;;;56.80;11.00;;;;;;5041366;28;20449;-67
2021/09/10 09:34:46;;;;;;;4.97;4.47;;;56.80;11.20;;;;;;5038503;28;20873;-68
2021/09/10 09:37:17;;;;;;;4.30;3.90;;;57.00;11.10;;;;;;5039717;28;20504;-68
2021/09/10 09:39:55;;;;;;;6.80;6.20;;;57.30;10.70;;;;;;5039423;28;20441;-68
2021/09/10 09:42:26;;;;;;;3.90;3.50;;;57.60;11.00;;;;;;5040020;28;20861;-67
2021/09/10 09:45:13;;;;;;;4.53;4.10;;;57.90;10.50;;;;;;5041519;28;20940;-68
2021/09/10 09:47:42;;;;;;;3.80;3.47;;;58.30;9.70;;;;;;5039217;28;20446;-69
2021/09/10 09:50:12;;;;;;;5.90;3.90;;;58.50;10.20;;;;;;5040407;28;20492;-69
2021/09/10 09:52:45;;;;;;;4.57;4.07;;;58.70;9.40;;;;;;5037781;28;20491;-67
2021/09/10 09:55:18;;;;;;;5.63;4.23;;;59.00;9.70;;;;;;5040568;28;20858;-68
2021/09/10 09:57:47;;;;;;;4.67;4.27;;;59.30;9.40;;;;;;5038789;28;20447;-67
2021/09/10 10:00:20;;;;;;;4.63;4.23;;;59.40;9.40;;;;;;5040229;28;20442;-68
2021/09/10 10:02:55;;;;;;;5.23;3.70;;;59.70;9.20;;;;;;5037588;28;20441;-67
2021/09/10 10:05:31;;;;;;;5.97;5.37;;;59.60;9.20;;;;;;5038114;28;20449;-68
2021/09/10 10:08:05;;;;;;;5.37;4.37;;;59.50;9.80;;;;;;5038680;28;20449;-67
2021/09/10 10:10:43;;;;;;;4.37;3.97;;;59.50;9.10;;;;;;5038556;28;20567;-67
2021/09/10 10:13:25;;;;;;;6.47;4.33;;;59.50;9.40;;;;;;5040242;28;20453;-67
2021/09/10 10:15:56;;;;;;;4.97;4.33;;;59.50;8.80;;;;;;5035642;28;20472;-68
2021/09/10 10:18:37;;;;;;;5.30;4.90;;;59.40;8.80;;;;;;5043401;28;20468;-68
2021/09/10 10:21:04;;;;;;;4.90;4.50;;;59.40;9.00;;;;;;5043053;28;20451;-68
2021/09/10 10:23:58;;;;;;;6.93;4.50;;;59.50;9.20;;;;;;5043654;28;20455;-68
2021/09/10 10:26:35;;;;;;;4.90;4.40;;;59.70;8.90;;;;;;5044434;28;20437;-68
2021/09/10 10:29:13;;;;;;;5.17;4.77;;;59.80;9.00;;;;;;5044220;28;20456;-68
2021/09/10 10:32:00;;;;;;;4.63;4.10;;;59.90;8.80;;;;;;5044383;28;20441;-68
2021/09/10 10:34:35;;;;;;;4.40;4.00;;;59.90;8.40;;;;;;5040729;28;20532;-68
2021/09/10 10:37:40;;;;;;;4.60;4.20;;;59.90;9.00;;;;;;5041538;28;20428;-69
2021/09/10 10:40:42;;;;;;;4.77;4.30;;;59.70;8.40;;;;;;5036899;28;20437;-68
2021/09/10 10:43:12;;;;;;;5.27;4.20;;;59.70;8.90;;;;;;4984468;28;20961;-68
2021/09/10 10:46:07;;;;;;;6.10;4.37;;;59.70;8.90;;;;;;4980244;28;20476;-68
2021/09/10 10:48:52;;;;;;;5.53;4.10;;;59.50;8.20;;;;;;5025840;28;20428;-68
2021/09/10 10:51:54;;;;;;;4.73;4.23;;;59.20;8.50;;;;;;5052600;28;20565;-68
2021/09/10 10:54:30;;;;;;;5.87;4.93;;;58.70;8.50;;;;;;5052887;28;20494;-68
2021/09/10 10:57:21;;;;;;;5.10;4.30;;;58.50;9.00;;;;;;5035297;28;20433;-68
2021/09/10 10:59:52;;;;;;;4.53;4.13;;;58.40;9.30;;;;;;5035002;28;20472;-68
2021/09/10 11:02:32;;;;;;;5.20;4.40;;;58.60;9.90;;;;;;5034655;28;20994;-70
2021/09/10 11:05:20;;;;;;;4.63;4.20;;;59.00;9.50;;;;;;5035157;28;20441;-68
2021/09/10 11:07:48;;;;;;;5.37;4.90;;;59.20;9.20;;;;;;5036033;28;20433;-68
2021/09/10 11:10:18;;;;;;;5.20;4.73;;;59.30;9.10;;;;;;5034886;28;20496;-68
2021/09/10 11:12:49;;;;;;;5.53;5.00;;;59.30;8.90;;;;;;5037927;28;20434;-68
2021/09/10 11:15:27;;;;;;;5.70;5.20;;;59.10;9.10;;;;;;5052043;28;20432;-69
2021/09/10 11:17:57;;;;;;;5.80;4.53;;;58.90;9.60;;;;;;5038415;28;20441;-68
2021/09/10 11:20:35;;;;;;;5.70;5.20;;;58.80;9.50;;;;;;5034685;28;20943;-69
2021/09/10 11:23:04;;;;;;;5.17;4.30;;;58.80;9.20;;;;;;5049038;28;20528;-68
2021/09/10 11:25:44;;;;;;;8.37;5.23;;;58.60;9.30;;;;;;5052759;28;20459;-68
2021/09/10 11:28:14;;;;;;;5.03;4.60;;;58.40;9.20;;;;;;5052028;28;21281;-68
2021/09/10 11:30:42;;;;;;;5.00;4.50;;;58.30;9.60;;;;;;5051539;28;20483;-68
2021/09/10 11:33:09;;;;;;;5.50;5.00;;;58.30;10.20;;;;;;5051477;28;20953;-68
2021/09/10 11:35:40;;;;;;;5.67;5.27;;;58.20;9.90;;;;;;5049322;28;20437;-68
2021/09/10 11:38:09;;;;;;;5.70;5.20;;;57.90;9.60;;;;;;5034966;28;20488;-68
2021/09/10 11:40:39;;;;;;;5.10;4.60;;;57.70;9.60;;;;;;5034320;28;20441;-68
2021/09/10 11:43:13;;;;;;;5.07;4.67;;;57.40;9.60;;;;;;5048974;28;20444;-68
2021/09/10 11:45:44;;;;;;;6.80;6.20;;;57.10;9.80;;;;;;5052288;28;20445;-69
2021/09/10 11:48:19;;;;;;;6.00;5.40;;;56.90;9.80;;;;;;5048598;28;20425;-68
2021/09/10 11:50:49;;;;;;;7.00;5.13;;;56.60;10.00;;;;;;5046115;28;20476;-68
2021/09/10 11:53:23;;;;;;;5.67;5.17;;;56.40;10.20;;;;;;5051476;28;20433;-68
2021/09/10 11:55:56;;;;;;;6.17;4.37;;;55.80;10.80;;;;;;5043911;28;20495;-68
2021/09/10 11:58:39;;;;;;;5.83;4.90;;;55.00;11.20;;;;;;5052177;28;20499;-68
2021/09/10 12:01:23;;;;;;;5.93;5.27;;;54.30;11.40;;;;;;5041813;28;20429;-69
2021/09/10 12:03:55;;;;;;;5.90;5.27;;;53.40;12.00;;;;;;5034474;28;20429;-68
2021/09/10 12:06:25;;;;;;;5.60;5.10;;;52.40;11.40;;;;;;5050058;28;20440;-68
2021/09/10 12:09:19;;;;;;;5.90;5.30;;;51.30;11.30;;;;;;5051334;28;20437;-68
2021/09/10 12:12:08;;;;;;;5.17;4.77;;;50.10;12.70;;;;;;5013649;28;20564;-68
2021/09/10 12:14:39;;;;;;;5.50;5.00;;;49.20;13.70;;;;;;5050694;28;21002;-68
2021/09/10 12:17:08;;;;;;;6.23;5.63;;;48.30;13.90;;;;;;5033911;28;20527;-67
2021/09/10 12:19:56;;;;;;;11.90;10.80;;;47.50;14.00;;;;;;5034430;28;20979;-67
2021/09/10 12:22:28;;;;;;;5.70;5.10;;;46.70;14.70;;;;;;5034126;28;20543;-67
2021/09/10 12:25:24;;;;;;;6.17;5.23;;;45.90;14.90;;;;;;5045740;28;20784;-68
2021/09/10 12:27:55;;;;;;;5.40;4.90;;;45.00;16.40;;;;;;5033998;28;20441;-68
2021/09/10 12:30:25;;;;;;;6.10;5.50;;;44.20;17.00;;;;;;5050088;28;20469;-69
2021/09/10 12:32:53;;;;;;;6.77;6.10;;;43.60;16.80;;;;;;5049091;28;20539;-68
2021/09/10 12:35:20;;;;;;;6.13;5.17;;;43.10;18.40;;;;;;5033808;28;20504;-68
2021/09/10 12:37:55;;;;;;;11.40;4.80;;;42.60;18.70;;;;;;5033464;28;20970;-68
2021/09/10 12:40:22;;;;;;;6.20;4.87;;;42.10;18.80;;;;;;5033391;28;20854;-67
2021/09/10 12:42:49;;;;;;;5.50;5.00;;;41.70;19.60;;;;;;5033435;28;20477;-69
2021/09/10 12:45:17;;;;;;;6.33;5.50;;;41.50;20.00;;;;;;5042199;28;20481;-67
2021/09/10 12:47:46;;;;;;;5.80;4.90;;;41.20;20.00;;;;;;5032748;28;20446;-71
2021/09/10 12:50:14;;;;;;;6.40;5.80;;;40.90;20.90;;;;;;5033511;28;20461;-67
2021/09/10 12:52:41;;;;;;;6.73;5.90;;;40.60;20.10;;;;;;5038437;28;20517;-67
2021/09/10 12:55:09;;;;;;;6.83;5.43;;;40.20;21.00;;;;;;5033349;28;20508;-70
2021/09/10 12:57:36;;;;;;;8.93;5.40;;;39.90;20.40;;;;;;5036942;28;20942;-70
2021/09/10 13:00:05;;;;;;;6.37;5.77;;;39.60;21.20;;;;;;5047057;28;20828;-71
2021/09/10 13:02:37;;;;;;;8.43;5.43;;;39.20;21.40;;;;;;5033161;28;20462;-69
2021/09/10 13:05:08;;;;;;;6.00;5.40;;;38.80;21.80;;;;;;5032979;28;20433;-69
2021/09/10 13:07:35;;;;;;;6.83;6.13;;;38.20;22.50;;;;;;5040157;28;20488;-69
2021/09/10 13:10:04;;;;;;;5.70;5.20;;;37.70;22.60;;;;;;5032860;28;20454;-69
2021/09/10 13:12:31;;;;;;;8.83;5.73;;;37.20;24.10;;;;;;5038720;28;20511;-68
2021/09/10 13:14:58;;;;;;;6.33;5.60;;;36.90;23.90;;;;;;5050482;28;20934;-69
2021/09/10 13:17:25;;;;;;;6.40;5.50;;;36.40;24.60;;;;;;5049003;28;20500;-70
2021/09/10 13:19:53;;;;;;;7.10;5.77;;;36.00;26.00;;;;;;5049595;28;20433;-69
2021/09/10 13:22:22;;;;;;;5.57;5.07;;;35.50;25.70;;;;;;5050106;28;20535;-68
2021/09/10 13:24:49;;;;;;;6.37;5.30;;;35.20;26.30;;;;;;5050533;28;20498;-69
2021/09/10 13:27:19;;;;;;;7.20;5.90;;;35.00;26.50;;;;;;5036001;28;20439;-69